sensor_id;sensor_type;location;lat;lon;timestamp;pressure;altitude;pressure_sealevel;temperature;humidity
75513;BME280;64090;49.770;18.760;2023-05-27T00:00:22;98378.24;;;10.20;67.89
75513;BME280;64090;49.770;18.760;2023-05-27T00:03:49;98376.73;;;10.08;71.05
75513;BME280;64090;49.770;18.760;2023-05-27T00:06:54;98379.04;;;9.95;70.75
75513;BME280;64090;49.770;18.760;2023-05-27T00:10:01;98382.55;;;9.82;70.96
75513;BME280;64090;49.770;18.760;2023-05-27T00:13:13;98376.56;;;9.68;71.67
75513;BME280;64090;49.770;18.760;2023-05-27T00:16:21;98383.09;;;9.55;71.70
75513;BME280;64090;49.770;18.760;2023-05-27T00:19:34;98379.46;;;9.42;72.85
75513;BME280;64090;49.770;18.760;2023-05-27T00:22:41;98379.48;;;9.32;75.18
75513;BME280;64090;49.770;18.760;2023-05-27T00:25:54;98379.42;;;9.25;75.72
75513;BME280;64090;49.770;18.760;2023-05-27T00:29:06;98384.41;;;9.18;73.38
75513;BME280;64090;49.770;18.760;2023-05-27T00:32:18;98387.52;;;9.11;72.61
75513;BME280;64090;49.770;18.760;2023-05-27T00:35:25;98392.66;;;9.03;72.35
75513;BME280;64090;49.770;18.760;2023-05-27T00:38:34;98389.58;;;8.95;71.49
75513;BME280;64090;49.770;18.760;2023-05-27T00:41:43;98387.54;;;8.90;71.31
75513;BME280;64090;49.770;18.760;2023-05-27T00:44:55;98381.70;;;8.87;71.31
75513;BME280;64090;49.770;18.760;2023-05-27T00:48:56;98382.33;;;8.81;71.21
75513;BME280;64090;49.770;18.760;2023-05-27T00:52:00;98383.33;;;8.79;70.86
75513;BME280;64090;49.770;18.760;2023-05-27T00:55:25;98383.45;;;8.79;70.85
75513;BME280;64090;49.770;18.760;2023-05-27T00:58:45;98378.80;;;8.84;71.21
75513;BME280;64090;49.770;18.760;2023-05-27T01:01:51;98381.31;;;8.93;71.27
75513;BME280;64090;49.770;18.760;2023-05-27T01:05:07;98385.44;;;9.00;71.16
75513;BME280;64090;49.770;18.760;2023-05-27T01:08:31;98379.92;;;8.99;71.01
75513;BME280;64090;49.770;18.760;2023-05-27T01:15:27;98380.96;;;8.85;70.86
75513;BME280;64090;49.770;18.760;2023-05-27T01:18:39;98381.16;;;8.79;71.43
75513;BME280;64090;49.770;18.760;2023-05-27T01:21:48;98381.16;;;8.79;72.26
75513;BME280;64090;49.770;18.760;2023-05-27T01:25:14;98385.23;;;8.84;72.33
75513;BME280;64090;49.770;18.760;2023-05-27T01:28:21;98383.52;;;8.85;72.21
75513;BME280;64090;49.770;18.760;2023-05-27T01:31:55;98383.75;;;8.86;72.07
75513;BME280;64090;49.770;18.760;2023-05-27T01:35:31;98381.39;;;8.86;72.17
75513;BME280;64090;49.770;18.760;2023-05-27T01:38:43;98378.86;;;8.88;72.82
75513;BME280;64090;49.770;18.760;2023-05-27T01:41:47;98379.45;;;8.91;73.07
75513;BME280;64090;49.770;18.760;2023-05-27T01:44:53;98377.27;;;8.92;73.09
75513;BME280;64090;49.770;18.760;2023-05-27T01:47:59;98378.34;;;8.88;72.75
75513;BME280;64090;49.770;18.760;2023-05-27T01:51:07;98373.77;;;8.84;72.75
75513;BME280;64090;49.770;18.760;2023-05-27T01:54:14;98373.87;;;8.80;73.39
75513;BME280;64090;49.770;18.760;2023-05-27T01:57:25;98372.59;;;8.77;74.07
75513;BME280;64090;49.770;18.760;2023-05-27T02:00:32;98370.73;;;8.70;73.85
75513;BME280;64090;49.770;18.760;2023-05-27T02:03:49;98366.66;;;8.60;74.45
75513;BME280;64090;49.770;18.760;2023-05-27T02:09:49;98369.19;;;8.44;75.03
75513;BME280;64090;49.770;18.760;2023-05-27T02:13:33;98375.33;;;8.38;75.14
75513;BME280;64090;49.770;18.760;2023-05-27T02:17:05;98370.81;;;8.29;75.13
75513;BME280;64090;49.770;18.760;2023-05-27T02:20:25;98373.16;;;8.18;75.58
75513;BME280;64090;49.770;18.760;2023-05-27T02:23:33;98375.85;;;8.10;75.76
75513;BME280;64090;49.770;18.760;2023-05-27T02:26:41;98375.63;;;8.00;75.69
75513;BME280;64090;49.770;18.760;2023-05-27T02:29:50;98379.02;;;7.93;76.52
75513;BME280;64090;49.770;18.760;2023-05-27T02:33:17;98381.75;;;7.84;76.36
75513;BME280;64090;49.770;18.760;2023-05-27T02:36:35;98383.49;;;7.79;77.82
75513;BME280;64090;49.770;18.760;2023-05-27T02:39:46;98385.23;;;7.76;78.01
75513;BME280;64090;49.770;18.760;2023-05-27T02:43:10;98381.27;;;7.71;77.72
75513;BME280;64090;49.770;18.760;2023-05-27T02:46:21;98380.88;;;7.60;77.58
75513;BME280;64090;49.770;18.760;2023-05-27T02:49:26;98382.41;;;7.49;77.70
75513;BME280;64090;49.770;18.760;2023-05-27T02:52:52;98379.06;;;7.36;78.17
75513;BME280;64090;49.770;18.760;2023-05-27T02:56:10;98376.56;;;7.24;78.43
75513;BME280;64090;49.770;18.760;2023-05-27T02:59:28;98377.96;;;7.14;78.22
75513;BME280;64090;49.770;18.760;2023-05-27T03:02:48;98382.34;;;7.08;78.41
75513;BME280;64090;49.770;18.760;2023-05-27T03:05:55;98382.98;;;7.06;78.46
75513;BME280;64090;49.770;18.760;2023-05-27T03:09:00;98384.52;;;7.06;78.47
75513;BME280;64090;49.770;18.760;2023-05-27T03:12:44;98388.74;;;7.14;78.46
75513;BME280;64090;49.770;18.760;2023-05-27T03:15:56;98388.79;;;7.28;78.64
75513;BME280;64090;49.770;18.760;2023-05-27T03:19:02;98388.14;;;7.44;78.59
75513;BME280;64090;49.770;18.760;2023-05-27T03:22:10;98397.77;;;7.65;78.57
75513;BME280;64090;49.770;18.760;2023-05-27T03:25:15;98404.75;;;7.91;78.18
75513;BME280;64090;49.770;18.760;2023-05-27T03:28:25;98414.36;;;8.22;77.95
75513;BME280;64090;49.770;18.760;2023-05-27T03:31:32;98415.90;;;8.59;77.56
75513;BME280;64090;49.770;18.760;2023-05-27T03:34:38;98414.32;;;8.98;77.01
75513;BME280;64090;49.770;18.760;2023-05-27T03:37:46;98414.36;;;9.47;76.34
75513;BME280;64090;49.770;18.760;2023-05-27T03:41:01;98411.47;;;10.00;75.67
75513;BME280;64090;49.770;18.760;2023-05-27T03:44:08;98414.59;;;10.54;74.86
75513;BME280;64090;49.770;18.760;2023-05-27T03:47:11;98418.35;;;11.08;74.12
75513;BME280;64090;49.770;18.760;2023-05-27T03:50:15;98418.30;;;11.54;70.62
75513;BME280;64090;49.770;18.760;2023-05-27T03:53:18;98418.95;;;11.88;68.51
75513;BME280;64090;49.770;18.760;2023-05-27T03:56:24;98414.35;;;12.21;68.11
75513;BME280;64090;49.770;18.760;2023-05-27T03:59:29;98419.14;;;12.63;67.09
75513;BME280;64090;49.770;18.760;2023-05-27T04:02:35;98419.89;;;12.89;65.64
75513;BME280;64090;49.770;18.760;2023-05-27T04:05:40;98422.13;;;13.20;65.69
75513;BME280;64090;49.770;18.760;2023-05-27T04:09:11;98420.08;;;13.33;64.84
75513;BME280;64090;49.770;18.760;2023-05-27T04:12:14;98417.09;;;13.80;65.30
75513;BME280;64090;49.770;18.760;2023-05-27T04:15:21;98418.91;;;14.36;63.68
75513;BME280;64090;49.770;18.760;2023-05-27T04:25:44;98432.05;;;15.98;59.45
75513;BME280;64090;49.770;18.760;2023-05-27T04:29:33;98428.45;;;16.55;60.68
75513;BME280;64090;49.770;18.760;2023-05-27T04:32:37;98437.02;;;16.89;58.92
75513;BME280;64090;49.770;18.760;2023-05-27T04:35:42;98446.53;;;16.89;57.80
75513;BME280;64090;49.770;18.760;2023-05-27T04:38:47;98439.39;;;16.27;55.76
75513;BME280;64090;49.770;18.760;2023-05-27T04:41:51;98435.44;;;16.04;57.68
75513;BME280;64090;49.770;18.760;2023-05-27T04:44:54;98435.83;;;16.08;57.24
75513;BME280;64090;49.770;18.760;2023-05-27T04:47:58;98433.13;;;15.97;57.24
75513;BME280;64090;49.770;18.760;2023-05-27T04:51:24;98438.09;;;15.88;58.51
75513;BME280;64090;49.770;18.760;2023-05-27T04:54:33;98443.84;;;15.31;57.31
75513;BME280;64090;49.770;18.760;2023-05-27T04:57:37;98443.64;;;14.89;59.02
75513;BME280;64090;49.770;18.760;2023-05-27T05:00:44;98441.33;;;14.61;59.68
75513;BME280;64090;49.770;18.760;2023-05-27T05:03:56;98436.58;;;14.38;59.98
75513;BME280;64090;49.770;18.760;2023-05-27T05:07:18;98441.66;;;14.19;60.64
75513;BME280;64090;49.770;18.760;2023-05-27T05:10:26;98442.33;;;14.30;60.43
75513;BME280;64090;49.770;18.760;2023-05-27T05:13:32;98441.66;;;14.21;60.66
75513;BME280;64090;49.770;18.760;2023-05-27T05:16:37;98443.52;;;14.17;61.00
75513;BME280;64090;49.770;18.760;2023-05-27T05:19:48;98444.64;;;14.38;60.72
75513;BME280;64090;49.770;18.760;2023-05-27T05:22:55;98446.80;;;14.55;60.14
75513;BME280;64090;49.770;18.760;2023-05-27T05:26:00;98445.21;;;14.55;60.64
75513;BME280;64090;49.770;18.760;2023-05-27T05:29:11;98448.87;;;14.75;60.39
75513;BME280;64090;49.770;18.760;2023-05-27T05:32:15;98452.36;;;14.98;60.13
75513;BME280;64090;49.770;18.760;2023-05-27T05:35:22;98449.09;;;15.19;59.90
75513;BME280;64090;49.770;18.760;2023-05-27T05:38:28;98453.52;;;15.28;59.34
75513;BME280;64090;49.770;18.760;2023-05-27T05:41:49;98456.44;;;15.16;59.29
75513;BME280;64090;49.770;18.760;2023-05-27T05:44:53;98453.18;;;15.39;59.21
75513;BME280;64090;49.770;18.760;2023-05-27T05:47:57;98455.02;;;15.63;58.76
75513;BME280;64090;49.770;18.760;2023-05-27T05:51:02;98455.48;;;15.80;57.52
75513;BME280;64090;49.770;18.760;2023-05-27T05:54:07;98449.96;;;15.96;57.08
75513;BME280;64090;49.770;18.760;2023-05-27T05:57:25;98454.52;;;16.13;56.23
75513;BME280;64090;49.770;18.760;2023-05-27T06:00:29;98458.59;;;16.20;54.81
75513;BME280;64090;49.770;18.760;2023-05-27T06:03:39;98460.96;;;16.18;55.22
75513;BME280;64090;49.770;18.760;2023-05-27T06:06:45;98463.86;;;16.25;55.26
75513;BME280;64090;49.770;18.760;2023-05-27T06:09:48;98466.16;;;16.27;55.10
75513;BME280;64090;49.770;18.760;2023-05-27T06:12:53;98466.34;;;16.28;54.63
75513;BME280;64090;49.770;18.760;2023-05-27T06:16:11;98472.75;;;16.20;54.71
75513;BME280;64090;49.770;18.760;2023-05-27T06:19:23;98466.27;;;16.09;54.20
75513;BME280;64090;49.770;18.760;2023-05-27T06:22:28;98466.21;;;16.13;54.14
75513;BME280;64090;49.770;18.760;2023-05-27T06:25:46;98468.52;;;16.18;54.01
75513;BME280;64090;49.770;18.760;2023-05-27T06:28:58;98469.71;;;16.15;53.53
75513;BME280;64090;49.770;18.760;2023-05-27T06:32:15;98472.27;;;16.07;53.09
75513;BME280;64090;49.770;18.760;2023-05-27T06:35:38;98474.58;;;16.03;53.49
75513;BME280;64090;49.770;18.760;2023-05-27T06:38:45;98469.48;;;16.04;53.72
75513;BME280;64090;49.770;18.760;2023-05-27T06:42:11;98473.74;;;16.09;53.73
75513;BME280;64090;49.770;18.760;2023-05-27T06:45:35;98472.30;;;16.19;53.77
75513;BME280;64090;49.770;18.760;2023-05-27T06:48:41;98476.93;;;16.30;53.76
75513;BME280;64090;49.770;18.760;2023-05-27T06:51:57;98476.14;;;16.36;54.23
75513;BME280;64090;49.770;18.760;2023-05-27T06:55:04;98478.86;;;16.46;53.81
75513;BME280;64090;49.770;18.760;2023-05-27T06:58:35;98474.14;;;16.49;53.81
75513;BME280;64090;49.770;18.760;2023-05-27T07:01:42;98474.11;;;16.56;53.59
75513;BME280;64090;49.770;18.760;2023-05-27T07:04:46;98473.58;;;16.65;53.25
75513;BME280;64090;49.770;18.760;2023-05-27T07:08:25;98467.29;;;16.63;52.80
75513;BME280;64090;49.770;18.760;2023-05-27T07:11:50;98468.70;;;16.57;53.10
75513;BME280;64090;49.770;18.760;2023-05-27T07:15:16;98468.97;;;16.64;53.14
75513;BME280;64090;49.770;18.760;2023-05-27T07:18:46;98468.98;;;16.60;53.28
75513;BME280;64090;49.770;18.760;2023-05-27T07:22:03;98466.52;;;16.71;53.61
75513;BME280;64090;49.770;18.760;2023-05-27T07:25:08;98467.77;;;16.85;53.76
75513;BME280;64090;49.770;18.760;2023-05-27T07:28:20;98469.02;;;17.03;53.32
75513;BME280;64090;49.770;18.760;2023-05-27T07:31:27;98469.19;;;17.17;52.63
75513;BME280;64090;49.770;18.760;2023-05-27T07:34:51;98470.04;;;17.25;52.43
75513;BME280;64090;49.770;18.760;2023-05-27T07:38:15;98478.62;;;17.38;52.81
75513;BME280;64090;49.770;18.760;2023-05-27T07:41:24;98481.14;;;17.52;53.02
75513;BME280;64090;49.770;18.760;2023-05-27T07:44:32;98474.45;;;17.62;51.95
75513;BME280;64090;49.770;18.760;2023-05-27T07:47:52;98474.45;;;17.69;51.87
75513;BME280;64090;49.770;18.760;2023-05-27T07:50:59;98475.92;;;17.74;51.35
75513;BME280;64090;49.770;18.760;2023-05-27T07:54:03;98470.12;;;17.77;50.69
75513;BME280;64090;49.770;18.760;2023-05-27T07:57:12;98470.73;;;17.80;50.61
75513;BME280;64090;49.770;18.760;2023-05-27T08:00:30;98459.44;;;17.80;51.19
75513;BME280;64090;49.770;18.760;2023-05-27T08:03:42;98463.04;;;17.87;50.02
75513;BME280;64090;49.770;18.760;2023-05-27T08:06:54;98469.39;;;17.78;49.24
75513;BME280;64090;49.770;18.760;2023-05-27T08:10:05;98466.20;;;17.75;49.68
75513;BME280;64090;49.770;18.760;2023-05-27T08:13:30;98469.86;;;17.77;50.03
75513;BME280;64090;49.770;18.760;2023-05-27T08:16:48;98462.92;;;17.80;50.04
75513;BME280;64090;49.770;18.760;2023-05-27T08:28:23;98452.08;;;18.04;49.41
75513;BME280;64090;49.770;18.760;2023-05-27T08:31:49;98448.68;;;18.06;49.18
75513;BME280;64090;49.770;18.760;2023-05-27T08:34:56;98452.85;;;18.05;49.24
75513;BME280;64090;49.770;18.760;2023-05-27T08:38:16;98449.20;;;18.03;49.20
75513;BME280;64090;49.770;18.760;2023-05-27T08:41:39;98448.01;;;18.03;49.32
75513;BME280;64090;49.770;18.760;2023-05-27T08:44:57;98445.34;;;18.09;49.69
75513;BME280;64090;49.770;18.760;2023-05-27T08:48:03;98449.91;;;18.26;49.74
75513;BME280;64090;49.770;18.760;2023-05-27T08:51:29;98446.58;;;18.36;49.11
75513;BME280;64090;49.770;18.760;2023-05-27T08:54:36;98446.55;;;18.44;49.66
75513;BME280;64090;49.770;18.760;2023-05-27T08:57:44;98438.92;;;18.44;48.53
75513;BME280;64090;49.770;18.760;2023-05-27T09:01:09;98441.14;;;18.48;49.20
75513;BME280;64090;49.770;18.760;2023-05-27T09:04:25;98436.70;;;18.57;48.82
75513;BME280;64090;49.770;18.760;2023-05-27T09:07:39;98433.77;;;18.61;48.37
75513;BME280;64090;49.770;18.760;2023-05-27T09:10:57;98421.86;;;18.55;47.89
75513;BME280;64090;49.770;18.760;2023-05-27T09:14:01;98431.72;;;18.80;48.61
75513;BME280;64090;49.770;18.760;2023-05-27T09:17:07;98430.19;;;18.96;47.70
75513;BME280;64090;49.770;18.760;2023-05-27T09:20:27;98427.94;;;19.12;46.78
75513;BME280;64090;49.770;18.760;2023-05-27T09:23:31;98422.94;;;19.23;47.01
75513;BME280;64090;49.770;18.760;2023-05-27T09:27:01;98426.27;;;19.46;46.98
75513;BME280;64090;49.770;18.760;2023-05-27T09:30:33;98415.27;;;19.79;45.76
75513;BME280;64090;49.770;18.760;2023-05-27T09:33:44;98417.10;;;19.91;45.80
75513;BME280;64090;49.770;18.760;2023-05-27T09:36:55;98427.02;;;20.01;44.22
75513;BME280;64090;49.770;18.760;2023-05-27T09:40:09;98426.86;;;19.86;43.57
75513;BME280;64090;49.770;18.760;2023-05-27T09:43:16;98425.84;;;19.79;43.61
75513;BME280;64090;49.770;18.760;2023-05-27T09:46:32;98426.55;;;19.50;43.70
75513;BME280;64090;49.770;18.760;2023-05-27T09:49:41;98422.48;;;19.35;44.38
75513;BME280;64090;49.770;18.760;2023-05-27T09:53:12;98420.89;;;19.46;44.80
75513;BME280;64090;49.770;18.760;2023-05-27T09:56:35;98421.18;;;19.39;44.37
75513;BME280;64090;49.770;18.760;2023-05-27T09:59:45;98422.65;;;19.45;44.16
75513;BME280;64090;49.770;18.760;2023-05-27T10:02:59;98420.52;;;19.54;44.66
75513;BME280;64090;49.770;18.760;2023-05-27T10:06:12;98416.83;;;19.66;44.30
75513;BME280;64090;49.770;18.760;2023-05-27T10:09:28;98412.00;;;19.86;44.01
75513;BME280;64090;49.770;18.760;2023-05-27T10:12:33;98408.59;;;20.05;44.34
75513;BME280;64090;49.770;18.760;2023-05-27T10:15:46;98404.31;;;20.03;44.51
75513;BME280;64090;49.770;18.760;2023-05-27T10:18:56;98405.35;;;20.04;45.34
75513;BME280;64090;49.770;18.760;2023-05-27T10:22:10;98405.05;;;19.82;43.90
75513;BME280;64090;49.770;18.760;2023-05-27T10:25:35;98411.54;;;19.68;44.19
75513;BME280;64090;49.770;18.760;2023-05-27T10:29:04;98407.25;;;19.77;44.54
75513;BME280;64090;49.770;18.760;2023-05-27T10:32:11;98403.02;;;20.17;44.29
75513;BME280;64090;49.770;18.760;2023-05-27T10:35:25;98397.85;;;20.36;43.60
75513;BME280;64090;49.770;18.760;2023-05-27T10:38:40;98394.55;;;20.49;43.34
75513;BME280;64090;49.770;18.760;2023-05-27T10:41:49;98397.59;;;20.85;43.18
75513;BME280;64090;49.770;18.760;2023-05-27T10:45:08;98394.05;;;20.99;42.91
75513;BME280;64090;49.770;18.760;2023-05-27T10:48:27;98393.66;;;21.03;42.16
75513;BME280;64090;49.770;18.760;2023-05-27T10:51:36;98396.92;;;20.94;42.41
75513;BME280;64090;49.770;18.760;2023-05-27T10:54:49;98389.29;;;20.71;40.68
75513;BME280;64090;49.770;18.760;2023-05-27T10:57:56;98384.24;;;20.74;41.53
75513;BME280;64090;49.770;18.760;2023-05-27T11:01:14;98379.05;;;20.91;41.17
75513;BME280;64090;49.770;18.760;2023-05-27T11:04:26;98385.86;;;20.74;41.23
75513;BME280;64090;49.770;18.760;2023-05-27T11:07:37;98380.11;;;20.71;41.51
75513;BME280;64090;49.770;18.760;2023-05-27T11:10:45;98384.33;;;20.94;41.08
75513;BME280;64090;49.770;18.760;2023-05-27T11:13:50;98380.09;;;21.17;40.46
75513;BME280;64090;49.770;18.760;2023-05-27T11:16:54;98382.36;;;21.05;40.61
75513;BME280;64090;49.770;18.760;2023-05-27T11:20:01;98376.74;;;20.80;40.43
75513;BME280;64090;49.770;18.760;2023-05-27T11:23:12;98371.21;;;20.54;40.76
75513;BME280;64090;49.770;18.760;2023-05-27T11:26:25;98368.20;;;20.36;41.35
75513;BME280;64090;49.770;18.760;2023-05-27T11:29:33;98362.25;;;20.37;42.49
75513;BME280;64090;49.770;18.760;2023-05-27T11:32:53;98363.33;;;20.50;41.82
75513;BME280;64090;49.770;18.760;2023-05-27T11:36:05;98360.06;;;20.24;40.41
75513;BME280;64090;49.770;18.760;2023-05-27T11:39:14;98359.48;;;20.24;41.75
75513;BME280;64090;49.770;18.760;2023-05-27T11:42:22;98358.52;;;20.31;41.63
75513;BME280;64090;49.770;18.760;2023-05-27T11:45:28;98353.98;;;20.26;41.39
75513;BME280;64090;49.770;18.760;2023-05-27T11:48:43;98349.03;;;20.27;41.13
75513;BME280;64090;49.770;18.760;2023-05-27T11:51:49;98347.85;;;20.32;42.18
75513;BME280;64090;49.770;18.760;2023-05-27T11:54:52;98341.42;;;20.42;41.70
75513;BME280;64090;49.770;18.760;2023-05-27T11:58:01;98340.55;;;20.46;40.75
75513;BME280;64090;49.770;18.760;2023-05-27T12:01:11;98336.65;;;20.46;41.26
75513;BME280;64090;49.770;18.760;2023-05-27T12:04:38;98335.09;;;20.41;40.94
75513;BME280;64090;49.770;18.760;2023-05-27T12:07:45;98335.10;;;20.41;41.46
75513;BME280;64090;49.770;18.760;2023-05-27T12:10:50;98336.67;;;20.44;40.80
75513;BME280;64090;49.770;18.760;2023-05-27T12:14:09;98332.20;;;20.39;40.27
75513;BME280;64090;49.770;18.760;2023-05-27T12:17:12;98324.56;;;20.42;41.49
75513;BME280;64090;49.770;18.760;2023-05-27T12:20:16;98327.49;;;20.57;41.28
75513;BME280;64090;49.770;18.760;2023-05-27T12:23:26;98319.42;;;20.66;40.62
75513;BME280;64090;49.770;18.760;2023-05-27T12:26:31;98321.22;;;20.42;40.61
75513;BME280;64090;49.770;18.760;2023-05-27T12:29:49;98318.34;;;20.17;40.52
75513;BME280;64090;49.770;18.760;2023-05-27T12:33:09;98321.52;;;20.07;41.92
75513;BME280;64090;49.770;18.760;2023-05-27T12:36:13;98319.33;;;20.26;41.70
75513;BME280;64090;49.770;18.760;2023-05-27T12:39:16;98320.79;;;20.48;41.94
75513;BME280;64090;49.770;18.760;2023-05-27T12:42:27;98323.69;;;20.67;41.13
75513;BME280;64090;49.770;18.760;2023-05-27T12:45:33;98323.32;;;20.68;40.06
75513;BME280;64090;49.770;18.760;2023-05-27T12:48:37;98321.98;;;20.64;40.28
75513;BME280;64090;49.770;18.760;2023-05-27T12:51:45;98315.05;;;20.68;40.01
75513;BME280;64090;49.770;18.760;2023-05-27T12:54:48;98312.45;;;20.79;40.33
75513;BME280;64090;49.770;18.760;2023-05-27T12:58:21;98311.87;;;20.85;39.55
75513;BME280;64090;49.770;18.760;2023-05-27T13:01:25;98303.27;;;20.81;39.41
75513;BME280;64090;49.770;18.760;2023-05-27T13:04:39;98293.56;;;20.68;38.76
75513;BME280;64090;49.770;18.760;2023-05-27T13:08:00;98296.21;;;20.63;40.06
75513;BME280;64090;49.770;18.760;2023-05-27T13:11:06;98294.42;;;20.63;40.37
75513;BME280;64090;49.770;18.760;2023-05-27T13:14:14;98293.80;;;20.71;40.08
75513;BME280;64090;49.770;18.760;2023-05-27T13:17:36;98299.86;;;20.79;39.06
75513;BME280;64090;49.770;18.760;2023-05-27T13:20:52;98291.38;;;20.67;38.09
75513;BME280;64090;49.770;18.760;2023-05-27T13:24:09;98289.27;;;20.60;38.17
75513;BME280;64090;49.770;18.760;2023-05-27T13:27:28;98277.66;;;20.62;38.57
75513;BME280;64090;49.770;18.760;2023-05-27T13:30:31;98278.42;;;20.74;39.27
75513;BME280;64090;49.770;18.760;2023-05-27T13:33:44;98280.64;;;20.96;39.67
75513;BME280;64090;49.770;18.760;2023-05-27T13:37:02;98274.89;;;21.00;38.32
75513;BME280;64090;49.770;18.760;2023-05-27T13:40:10;98269.69;;;20.97;38.85
75513;BME280;64090;49.770;18.760;2023-05-27T13:43:14;98271.11;;;21.10;38.63
75513;BME280;64090;49.770;18.760;2023-05-27T13:46:19;98266.64;;;21.19;37.95
75513;BME280;64090;49.770;18.760;2023-05-27T13:49:29;98274.14;;;21.19;37.00
75513;BME280;64090;49.770;18.760;2023-05-27T13:52:44;98272.92;;;21.06;36.79
75513;BME280;64090;49.770;18.760;2023-05-27T13:55:53;98269.27;;;21.02;37.06
75513;BME280;64090;49.770;18.760;2023-05-27T13:59:00;98271.84;;;21.05;37.85
75513;BME280;64090;49.770;18.760;2023-05-27T14:02:16;98266.55;;;21.06;35.91
75513;BME280;64090;49.770;18.760;2023-05-27T14:05:28;98268.64;;;20.96;35.27
75513;BME280;64090;49.770;18.760;2023-05-27T14:09:09;98259.90;;;20.91;36.14
75513;BME280;64090;49.770;18.760;2023-05-27T14:12:17;98258.84;;;20.94;36.00
75513;BME280;64090;49.770;18.760;2023-05-27T14:15:41;98252.02;;;20.93;36.72
75513;BME280;64090;49.770;18.760;2023-05-27T14:19:06;98249.27;;;20.93;37.11
75513;BME280;64090;49.770;18.760;2023-05-27T14:22:16;98246.13;;;21.00;37.77
75513;BME280;64090;49.770;18.760;2023-05-27T14:25:31;98241.05;;;21.17;36.94
75513;BME280;64090;49.770;18.760;2023-05-27T14:28:36;98236.48;;;21.23;36.81
75513;BME280;64090;49.770;18.760;2023-05-27T14:31:44;98229.42;;;21.31;36.78
75513;BME280;64090;49.770;18.760;2023-05-27T14:34:49;98229.96;;;21.38;36.37
75513;BME280;64090;49.770;18.760;2023-05-27T14:38:16;98230.26;;;21.33;35.31
75513;BME280;64090;49.770;18.760;2023-05-27T14:43:15;98219.70;;;21.32;35.04
75513;BME280;64090;49.770;18.760;2023-05-27T14:46:18;98220.27;;;21.29;33.89
75513;BME280;64090;49.770;18.760;2023-05-27T14:49:40;98219.27;;;21.22;33.78
75513;BME280;64090;49.770;18.760;2023-05-27T14:52:46;98215.19;;;21.18;33.80
75513;BME280;64090;49.770;18.760;2023-05-27T14:55:49;98213.33;;;21.13;33.79
75513;BME280;64090;49.770;18.760;2023-05-27T14:58:57;98207.90;;;21.09;34.59
75513;BME280;64090;49.770;18.760;2023-05-27T15:02:24;98200.77;;;21.12;34.46
75513;BME280;64090;49.770;18.760;2023-05-27T15:05:35;98200.91;;;21.08;34.28
75513;BME280;64090;49.770;18.760;2023-05-27T15:08:41;98205.05;;;21.11;33.94
75513;BME280;64090;49.770;18.760;2023-05-27T15:11:54;98202.30;;;21.14;32.86
75513;BME280;64090;49.770;18.760;2023-05-27T15:15:20;98199.73;;;21.10;32.44
75513;BME280;64090;49.770;18.760;2023-05-27T15:20:06;98199.20;;;21.12;32.29
75513;BME280;64090;49.770;18.760;2023-05-27T15:23:36;98201.67;;;21.07;32.36
75513;BME280;64090;49.770;18.760;2023-05-27T15:26:55;98199.02;;;21.07;32.30
75513;BME280;64090;49.770;18.760;2023-05-27T15:30:04;98194.18;;;21.13;32.06
75513;BME280;64090;49.770;18.760;2023-05-27T15:33:10;98193.00;;;21.25;32.46
75513;BME280;64090;49.770;18.760;2023-05-27T15:36:15;98189.60;;;21.28;31.67
75513;BME280;64090;49.770;18.760;2023-05-27T15:39:25;98180.97;;;21.22;31.68
75513;BME280;64090;49.770;18.760;2023-05-27T15:42:30;98182.73;;;21.28;32.52
75513;BME280;64090;49.770;18.760;2023-05-27T15:45:39;98184.30;;;21.37;31.78
75513;BME280;64090;49.770;18.760;2023-05-27T15:48:55;98183.13;;;21.39;31.52
75513;BME280;64090;49.770;18.760;2023-05-27T15:51:59;98178.70;;;21.36;30.94
75513;BME280;64090;49.770;18.760;2023-05-27T15:55:06;98177.68;;;21.37;31.07
75513;BME280;64090;49.770;18.760;2023-05-27T15:58:14;98177.19;;;21.42;31.11
75513;BME280;64090;49.770;18.760;2023-05-27T16:01:20;98172.87;;;21.35;29.70
75513;BME280;64090;49.770;18.760;2023-05-27T16:04:31;98169.60;;;21.20;30.21
75513;BME280;64090;49.770;18.760;2023-05-27T16:07:40;98163.58;;;21.17;30.24
75513;BME280;64090;49.770;18.760;2023-05-27T16:11:04;98161.00;;;21.08;29.88
75513;BME280;64090;49.770;18.760;2023-05-27T16:14:06;98160.95;;;20.98;30.52
75513;BME280;64090;49.770;18.760;2023-05-27T16:17:19;98160.52;;;20.92;30.78
75513;BME280;64090;49.770;18.760;2023-05-27T16:20:28;98153.17;;;20.79;30.54
75513;BME280;64090;49.770;18.760;2023-05-27T16:23:34;98151.54;;;20.69;31.06
75513;BME280;64090;49.770;18.760;2023-05-27T16:26:38;98150.16;;;20.47;31.09
75513;BME280;64090;49.770;18.760;2023-05-27T16:30:13;98146.51;;;20.42;31.57
75513;BME280;64090;49.770;18.760;2023-05-27T16:33:23;98145.20;;;20.46;31.74
75513;BME280;64090;49.770;18.760;2023-05-27T16:36:29;98143.07;;;20.44;32.29
75513;BME280;64090;49.770;18.760;2023-05-27T16:39:36;98146.30;;;20.43;32.60
75513;BME280;64090;49.770;18.760;2023-05-27T16:42:55;98147.52;;;20.32;32.62
75513;BME280;64090;49.770;18.760;2023-05-27T16:46:04;98145.63;;;20.32;32.55
75513;BME280;64090;49.770;18.760;2023-05-27T16:49:09;98138.90;;;20.63;32.55
75513;BME280;64090;49.770;18.760;2023-05-27T16:52:28;98137.91;;;21.08;32.13
75513;BME280;64090;49.770;18.760;2023-05-27T16:55:35;98135.38;;;21.47;32.10
75513;BME280;64090;49.770;18.760;2023-05-27T16:58:43;98137.84;;;21.80;32.22
75513;BME280;64090;49.770;18.760;2023-05-27T17:01:59;98138.69;;;22.03;31.58
75513;BME280;64090;49.770;18.760;2023-05-27T17:05:09;98137.77;;;22.03;31.80
75513;BME280;64090;49.770;18.760;2023-05-27T17:08:27;98135.63;;;22.18;31.34
75513;BME280;64090;49.770;18.760;2023-05-27T17:11:53;98139.31;;;22.33;31.41
75513;BME280;64090;49.770;18.760;2023-05-27T17:14:58;98141.05;;;22.42;31.37